Time;durP1;ratioP1;P1;durP2;ratioP2;P2;SDS_P1;SDS_P2;PMS_P1;PMS_P2;Temp;Humidity;BMP_temperature;BMP_pressure;BME280_temperature;BME280_humidity;BME280_pressure;Samples;Min_cycle;Max_cycle;Signal;HPM_P1;HPM_P2
2023/04/21 00:01:28;;;;;;;3.50;1.00;;;26.40;99.90;;;;;;5095142;28;20621;-75
2023/04/21 00:03:56;;;;;;;5.17;1.23;;;26.80;99.90;;;;;;5091422;28;20206;-74
2023/04/21 00:06:25;;;;;;;5.97;1.20;;;27.10;99.90;;;;;;5095621;28;20185;-73
2023/04/21 00:08:53;;;;;;;4.50;1.10;;;27.10;99.90;;;;;;5100807;28;20193;-75
2023/04/21 00:11:21;;;;;;;3.73;0.83;;;27.40;99.90;;;;;;5098390;28;20200;-76
2023/04/21 00:13:49;;;;;;;6.37;1.20;;;27.60;99.90;;;;;;5107822;28;20208;-76
2023/04/21 00:16:16;;;;;;;3.83;1.10;;;27.10;99.90;;;;;;5111824;28;20530;-75
2023/04/21 00:18:44;;;;;;;5.27;1.20;;;25.90;99.90;;;;;;5112159;28;20672;-77
2023/04/21 00:21:12;;;;;;;2.43;0.77;;;24.80;99.90;;;;;;5112237;28;20178;-77
2023/04/21 00:23:40;;;;;;;5.03;1.13;;;25.60;99.90;;;;;;5111209;28;20275;-77
2023/04/21 00:26:08;;;;;;;5.17;1.47;;;25.50;99.90;;;;;;5112277;28;20266;-77
2023/04/21 00:28:35;;;;;;;4.87;0.93;;;25.60;99.90;;;;;;5112150;28;20186;-75
2023/04/21 00:31:03;;;;;;;7.57;1.20;;;26.30;99.90;;;;;;5111955;28;20574;-74
2023/04/21 00:33:31;;;;;;;3.33;1.00;;;26.80;99.90;;;;;;5118356;28;20182;-77
2023/04/21 00:35:59;;;;;;;5.77;1.20;;;27.20;99.90;;;;;;5118877;27;20185;-76
2023/04/21 00:38:26;;;;;;;2.63;1.00;;;27.10;99.90;;;;;;5118344;27;20224;-78
2023/04/21 00:40:54;;;;;;;3.47;0.80;;;26.30;99.90;;;;;;5118913;27;20216;-76
2023/04/21 00:43:24;;;;;;;3.30;1.07;;;25.10;99.90;;;;;;5118646;27;20178;-77
2023/04/21 00:45:52;;;;;;;4.30;1.00;;;24.40;99.90;;;;;;5118250;27;20181;-77
2023/04/21 00:48:20;;;;;;;6.60;1.17;;;25.30;99.90;;;;;;5118748;27;20175;-76
2023/04/21 00:50:47;;;;;;;6.33;1.07;;;25.90;99.90;;;;;;5118725;27;20181;-77
2023/04/21 00:53:16;;;;;;;5.03;1.13;;;24.90;99.90;;;;;;5118372;27;20702;-77
2023/04/21 00:55:44;;;;;;;5.83;1.07;;;25.40;99.90;;;;;;5118598;27;20602;-77
2023/04/21 00:58:11;;;;;;;4.23;0.87;;;26.40;99.90;;;;;;5118696;27;20257;-76
2023/04/21 01:00:39;;;;;;;4.40;1.10;;;27.00;99.90;;;;;;5118277;27;20167;-71
2023/04/21 01:03:07;;;;;;;8.33;1.40;;;27.50;99.90;;;;;;5118695;27;20170;-77
2023/04/21 01:05:35;;;;;;;4.43;1.30;;;28.10;99.90;;;;;;5118526;27;20197;-77
2023/04/21 01:08:03;;;;;;;4.43;1.03;;;29.10;99.90;;;;;;5118088;27;20648;-78
2023/04/21 01:10:32;;;;;;;6.07;1.10;;;28.70;99.90;;;;;;5103028;27;20179;-72
2023/04/21 01:13:00;;;;;;;4.77;1.60;;;28.40;99.90;;;;;;5097890;28;20183;-76
2023/04/21 01:15:29;;;;;;;4.33;1.30;;;27.60;99.90;;;;;;5097742;28;20175;-76
2023/04/21 01:17:57;;;;;;;5.43;1.10;;;26.60;99.90;;;;;;5097987;28;20179;-76
2023/04/21 01:20:28;;;;;;;4.47;0.90;;;26.10;99.90;;;;;;5098050;28;20187;-78
2023/04/21 01:22:56;;;;;;;3.60;1.03;;;26.00;99.90;;;;;;5098169;28;20179;-75
2023/04/21 01:25:27;;;;;;;8.60;1.10;;;25.80;99.90;;;;;;5098059;28;20217;-78
2023/04/21 01:27:55;;;;;;;3.20;0.87;;;26.40;99.90;;;;;;5098020;28;20237;-77
2023/04/21 01:30:22;;;;;;;4.90;0.90;;;27.00;99.90;;;;;;5097516;28;20172;-78
2023/04/21 01:32:50;;;;;;;5.70;1.47;;;26.00;99.90;;;;;;5097983;28;20642;-76
2023/04/21 01:35:18;;;;;;;6.60;1.00;;;25.00;99.90;;;;;;5097853;28;20222;-78
2023/04/21 01:37:46;;;;;;;6.33;1.20;;;24.20;99.90;;;;;;5097289;28;20766;-77
2023/04/21 01:40:14;;;;;;;5.80;0.90;;;23.70;99.90;;;;;;5097913;28;20440;-77
2023/04/21 01:42:43;;;;;;;1.47;0.90;;;23.50;99.90;;;;;;5097578;28;20258;-77
2023/04/21 01:45:11;;;;;;;4.13;1.17;;;24.10;99.90;;;;;;5104354;28;20222;-76
2023/04/21 01:47:39;;;;;;;3.20;0.97;;;25.80;99.90;;;;;;5115107;28;20177;-78
2023/04/21 01:50:08;;;;;;;3.70;0.97;;;27.00;99.90;;;;;;5114922;28;20206;-75
2023/04/21 01:52:36;;;;;;;3.60;1.13;;;26.80;99.90;;;;;;5114536;28;20189;-77
2023/04/21 01:55:04;;;;;;;6.13;0.90;;;25.90;99.90;;;;;;5114501;28;20189;-75
2023/04/21 01:57:32;;;;;;;4.43;1.00;;;24.90;99.90;;;;;;5098271;28;20195;-77
2023/04/21 02:00:00;;;;;;;3.03;1.07;;;24.10;99.90;;;;;;5093873;28;20209;-77
2023/04/21 02:02:27;;;;;;;7.80;1.20;;;23.40;99.90;;;;;;5094385;28;20179;-75
2023/04/21 02:04:55;;;;;;;7.33;1.00;;;23.60;99.90;;;;;;5093983;28;20204;-74
2023/04/21 02:07:23;;;;;;;5.77;1.00;;;25.10;99.90;;;;;;5093962;28;20175;-76
2023/04/21 02:09:51;;;;;;;3.77;0.83;;;26.10;99.90;;;;;;5094110;28;20183;-77
2023/04/21 02:12:19;;;;;;;3.73;0.50;;;26.50;99.90;;;;;;5094035;28;20266;-74
2023/04/21 02:14:47;;;;;;;5.23;1.00;;;26.40;99.90;;;;;;5093698;28;20561;-76
2023/04/21 02:17:16;;;;;;;2.13;0.80;;;26.50;99.90;;;;;;5094327;28;20164;-77
2023/04/21 02:19:44;;;;;;;3.97;0.67;;;25.90;99.90;;;;;;5093895;28;20179;-76
2023/04/21 02:22:12;;;;;;;1.13;0.80;;;26.50;99.90;;;;;;5103874;28;20171;-75
2023/04/21 02:24:40;;;;;;;3.70;1.33;;;27.20;99.90;;;;;;5099719;28;20290;-77
2023/04/21 02:27:07;;;;;;;9.57;1.43;;;27.80;99.90;;;;;;5097028;28;20171;-76
2023/04/21 02:29:35;;;;;;;3.47;0.90;;;28.40;99.90;;;;;;5113829;28;20174;-77
2023/04/21 02:32:03;;;;;;;4.80;0.80;;;28.50;99.90;;;;;;5114041;28;20251;-76
2023/04/21 02:34:31;;;;;;;4.97;1.10;;;28.50;99.90;;;;;;5114237;28;20186;-74
2023/04/21 02:36:59;;;;;;;6.67;0.80;;;29.00;99.90;;;;;;5113577;28;20538;-75
2023/04/21 02:39:27;;;;;;;5.60;1.00;;;29.00;99.90;;;;;;5114110;28;20238;-76
2023/04/21 02:41:55;;;;;;;2.13;0.70;;;28.70;99.90;;;;;;5113886;28;20175;-74
2023/04/21 02:44:23;;;;;;;3.73;0.90;;;27.90;99.90;;;;;;5113233;28;20210;-76
2023/04/21 02:46:51;;;;;;;3.67;1.10;;;26.40;99.90;;;;;;5113847;28;20175;-74
2023/04/21 02:49:18;;;;;;;4.57;0.90;;;25.80;99.90;;;;;;5113892;28;20170;-75
2023/04/21 02:51:46;;;;;;;3.90;0.90;;;25.40;99.90;;;;;;5113444;28;20601;-75
2023/04/21 02:54:14;;;;;;;3.03;0.90;;;25.10;99.90;;;;;;5113465;28;20178;-76
2023/04/21 02:56:42;;;;;;;4.10;0.90;;;25.10;99.90;;;;;;5113464;28;20180;-75
2023/04/21 02:59:10;;;;;;;1.40;0.80;;;26.20;99.90;;;;;;5113104;28;20178;-70
2023/04/21 03:01:38;;;;;;;3.10;0.93;;;26.80;99.90;;;;;;5113526;28;20637;-76
2023/04/21 03:04:06;;;;;;;5.70;0.93;;;26.80;99.90;;;;;;5113432;28;20241;-76
2023/04/21 03:06:34;;;;;;;6.33;1.13;;;26.80;99.90;;;;;;5113090;28;20175;-75
2023/04/21 03:09:01;;;;;;;5.90;1.13;;;26.70;99.90;;;;;;5113548;28;20202;-75
2023/04/21 03:11:29;;;;;;;3.33;0.80;;;26.10;99.90;;;;;;5113279;28;20189;-76
2023/04/21 03:13:57;;;;;;;2.63;0.90;;;25.30;99.90;;;;;;5112877;28;20186;-73
2023/04/21 03:16:25;;;;;;;3.47;0.97;;;24.60;99.90;;;;;;5104169;28;20182;-77
2023/04/21 03:18:53;;;;;;;5.67;1.20;;;25.10;99.90;;;;;;5113196;28;20171;-75
2023/04/21 03:21:20;;;;;;;5.57;1.30;;;26.20;99.90;;;;;;5112855;28;20170;-76
2023/04/21 03:23:48;;;;;;;6.00;0.87;;;26.70;99.90;;;;;;5112758;28;20226;-74
2023/04/21 03:26:16;;;;;;;5.43;0.97;;;26.60;99.90;;;;;;5113046;28;20281;-73
2023/04/21 03:28:44;;;;;;;3.03;0.80;;;27.20;99.90;;;;;;5112743;28;20179;-76
2023/04/21 03:31:12;;;;;;;5.73;1.30;;;27.50;99.90;;;;;;5112937;28;20170;-71
2023/04/21 03:33:39;;;;;;;2.87;0.70;;;27.90;99.90;;;;;;5111573;28;20649;-75
2023/04/21 03:36:07;;;;;;;3.07;0.70;;;27.20;99.90;;;;;;5104989;28;20618;-76
2023/04/21 03:38:35;;;;;;;3.60;0.80;;;26.00;99.90;;;;;;5103296;28;20179;-74
2023/04/21 03:41:04;;;;;;;3.37;0.80;;;25.10;99.90;;;;;;5092405;28;20656;-76
2023/04/21 03:43:32;;;;;;;2.50;0.67;;;24.70;99.90;;;;;;5091772;28;20218;-70
2023/04/21 03:46:00;;;;;;;3.53;1.00;;;24.40;99.90;;;;;;5092893;28;20311;-75
2023/04/21 03:48:28;;;;;;;3.63;0.90;;;24.10;99.90;;;;;;5102032;28;20643;-75
2023/04/21 03:50:56;;;;;;;4.83;0.73;;;24.30;99.90;;;;;;5091922;28;20175;-72
2023/04/21 03:53:24;;;;;;;3.57;1.10;;;24.80;99.90;;;;;;5092260;28;20180;-75
2023/04/21 03:55:51;;;;;;;3.23;1.17;;;25.20;99.90;;;;;;5093557;28;22232;-76
2023/04/21 03:58:19;;;;;;;2.10;0.80;;;24.90;99.90;;;;;;5112155;28;20177;-75
2023/04/21 04:00:47;;;;;;;3.77;0.83;;;25.40;99.90;;;;;;5112560;28;20178;-74
2023/04/21 04:03:15;;;;;;;3.27;0.73;;;25.60;99.90;;;;;;5112369;28;20178;-72
2023/04/21 04:05:42;;;;;;;2.80;0.90;;;26.00;99.90;;;;;;5107603;28;20189;-75
2023/04/21 04:08:10;;;;;;;3.73;1.10;;;26.40;99.90;;;;;;5111653;28;20231;-75
2023/04/21 04:10:38;;;;;;;3.17;0.77;;;26.30;99.90;;;;;;5112431;28;20228;-73
2023/04/21 04:13:06;;;;;;;5.73;1.10;;;25.30;99.90;;;;;;5111785;28;20270;-74
2023/04/21 04:15:34;;;;;;;1.83;0.70;;;25.30;99.90;;;;;;5107649;28;20614;-74
2023/04/21 04:18:01;;;;;;;4.87;0.70;;;24.60;99.90;;;;;;5091875;28;20171;-73
2023/04/21 04:20:29;;;;;;;2.47;0.73;;;24.10;99.90;;;;;;5090310;28;20184;-74
2023/04/21 04:22:57;;;;;;;5.53;0.80;;;24.50;99.90;;;;;;5090255;28;20648;-76
2023/04/21 04:25:25;;;;;;;3.27;0.80;;;25.00;99.90;;;;;;5106403;28;20719;-75
2023/04/21 04:27:54;;;;;;;1.60;0.50;;;24.40;99.90;;;;;;5095154;28;20645;-79
2023/04/21 04:30:22;;;;;;;2.50;0.90;;;24.40;99.90;;;;;;5111723;28;20186;-75
2023/04/21 04:32:51;;;;;;;2.93;0.50;;;24.30;99.90;;;;;;5111168;28;20583;-76
2023/04/21 04:35:19;;;;;;;2.90;0.80;;;24.40;99.90;;;;;;5111435;28;20185;-77
2023/04/21 04:37:47;;;;;;;4.10;0.77;;;24.70;99.90;;;;;;5111976;28;20273;-75
2023/04/21 04:40:15;;;;;;;3.00;0.80;;;25.00;99.90;;;;;;5111888;28;20187;-75
2023/04/21 04:42:45;;;;;;;3.13;0.90;;;24.90;99.90;;;;;;5103747;28;20186;-75
2023/04/21 04:45:15;;;;;;;3.57;0.83;;;25.00;99.90;;;;;;5099864;28;20210;-76
2023/04/21 04:47:44;;;;;;;5.33;1.27;;;25.20;99.90;;;;;;5093953;28;20187;-72
2023/04/21 04:50:12;;;;;;;2.77;0.60;;;25.10;99.90;;;;;;5100935;28;20179;-75
2023/04/21 04:52:40;;;;;;;5.73;0.80;;;24.40;99.90;;;;;;5094178;28;20179;-75
2023/04/21 04:55:08;;;;;;;4.43;0.70;;;23.90;99.90;;;;;;5101983;28;20209;-75
2023/04/21 04:57:36;;;;;;;1.93;0.60;;;24.00;99.90;;;;;;5110537;28;20641;-73
2023/04/21 05:00:07;;;;;;;4.40;0.63;;;24.10;99.90;;;;;;5111816;28;20273;-75
2023/04/21 05:02:35;;;;;;;5.57;0.83;;;24.30;99.90;;;;;;5098271;28;20636;-74
2023/04/21 05:05:04;;;;;;;3.67;0.87;;;24.40;99.90;;;;;;5090841;28;20214;-76
2023/04/21 05:07:32;;;;;;;4.03;0.87;;;24.40;99.90;;;;;;5091316;28;20179;-74
2023/04/21 05:10:01;;;;;;;4.10;0.97;;;24.40;99.90;;;;;;5091441;28;20193;-76
2023/04/21 05:12:29;;;;;;;1.47;0.73;;;24.30;99.90;;;;;;5091070;28;20285;-76
2023/04/21 05:14:56;;;;;;;5.67;0.87;;;24.10;99.90;;;;;;5091254;28;20191;-76
2023/04/21 05:17:25;;;;;;;3.47;0.70;;;24.00;99.90;;;;;;5099431;28;20194;-75
2023/04/21 05:19:52;;;;;;;6.27;0.70;;;23.80;99.90;;;;;;5103726;28;20178;-75
2023/04/21 05:22:20;;;;;;;3.00;0.70;;;23.70;99.90;;;;;;5104767;28;20261;-75
2023/04/21 05:24:48;;;;;;;3.40;0.80;;;23.70;99.90;;;;;;5106136;28;20235;-73
2023/04/21 05:27:15;;;;;;;3.40;1.00;;;23.80;99.90;;;;;;5103662;28;20186;-78
2023/04/21 05:29:43;;;;;;;2.87;0.70;;;23.90;99.90;;;;;;5115466;28;20178;-76
2023/04/21 05:32:11;;;;;;;3.30;1.07;;;23.70;99.90;;;;;;5114025;28;20170;-75
2023/04/21 05:34:39;;;;;;;5.53;1.13;;;23.70;99.90;;;;;;5105625;28;20638;-74
2023/04/21 05:37:07;;;;;;;3.57;0.93;;;23.60;99.90;;;;;;5113992;28;20740;-77
2023/04/21 05:39:34;;;;;;;3.57;0.63;;;23.70;99.90;;;;;;5114850;28;20266;-78
2023/04/21 05:42:02;;;;;;;3.57;0.60;;;23.70;99.90;;;;;;5102829;28;20193;-77
2023/04/21 05:44:30;;;;;;;1.90;0.70;;;23.80;99.90;;;;;;5094659;28;20218;-76
2023/04/21 05:46:58;;;;;;;5.30;0.77;;;23.90;99.90;;;;;;5094789;28;20558;-76
2023/04/21 05:49:25;;;;;;;4.87;0.53;;;23.80;99.90;;;;;;5094224;28;20646;-74
2023/04/21 05:51:53;;;;;;;4.23;0.80;;;23.80;99.90;;;;;;5099726;28;20185;-76
2023/04/21 05:54:21;;;;;;;3.40;0.90;;;23.70;99.90;;;;;;5106991;28;20266;-76
2023/04/21 05:56:49;;;;;;;4.00;0.93;;;23.60;99.90;;;;;;5114630;28;20589;-75
2023/04/21 05:59:17;;;;;;;7.17;0.87;;;23.30;99.90;;;;;;5114943;27;20224;-76
2023/04/21 06:01:44;;;;;;;1.60;0.80;;;23.20;99.90;;;;;;5114291;28;20624;-76
2023/04/21 06:04:12;;;;;;;4.53;1.03;;;23.00;99.90;;;;;;5114448;28;20198;-76
2023/04/21 06:06:40;;;;;;;2.67;0.90;;;22.90;99.90;;;;;;5114381;28;20663;-77
2023/04/21 06:09:08;;;;;;;4.33;0.83;;;22.70;99.90;;;;;;5114888;28;20525;-76
2023/04/21 06:11:36;;;;;;;4.27;1.07;;;22.40;99.90;;;;;;5113897;28;20207;-74
2023/04/21 06:14:03;;;;;;;3.60;1.00;;;22.20;99.90;;;;;;5114580;28;20231;-76
2023/04/21 06:16:32;;;;;;;4.17;1.00;;;22.10;99.90;;;;;;5114575;28;20167;-75
2023/04/21 06:19:01;;;;;;;6.63;1.00;;;22.00;99.90;;;;;;5114164;28;20241;-77
2023/04/21 06:21:28;;;;;;;3.50;0.73;;;22.00;99.90;;;;;;5110157;28;20625;-77
2023/04/21 06:23:56;;;;;;;8.00;0.90;;;21.80;99.90;;;;;;5093702;28;20222;-78
2023/04/21 06:26:24;;;;;;;5.03;1.03;;;21.70;99.90;;;;;;5093631;28;20194;-76
2023/04/21 06:28:52;;;;;;;5.53;1.07;;;21.60;99.90;;;;;;5112072;28;20637;-74
2023/04/21 06:31:20;;;;;;;6.30;1.10;;;21.60;99.90;;;;;;5113026;28;20194;-75
2023/04/21 06:33:47;;;;;;;4.77;0.70;;;21.50;99.90;;;;;;5113841;28;20594;-75
2023/04/21 06:36:15;;;;;;;2.57;0.80;;;21.50;99.90;;;;;;5114255;28;20998;-77
2023/04/21 06:38:43;;;;;;;2.83;0.90;;;21.60;99.90;;;;;;5114310;28;20597;-76
2023/04/21 06:41:11;;;;;;;2.77;0.80;;;21.50;99.90;;;;;;5113674;28;20175;-77
2023/04/21 06:43:38;;;;;;;2.93;0.90;;;21.50;99.90;;;;;;5113843;28;20181;-77
2023/04/21 06:46:07;;;;;;;7.37;1.10;;;21.60;99.90;;;;;;5113829;28;20652;-74
2023/04/21 06:48:34;;;;;;;4.20;0.87;;;21.60;99.90;;;;;;5113449;27;20178;-75
2023/04/21 06:51:02;;;;;;;2.20;0.90;;;21.60;99.90;;;;;;5114222;28;20544;-76
2023/04/21 06:53:30;;;;;;;2.83;0.90;;;21.40;99.90;;;;;;5113921;28;20182;-74
2023/04/21 06:55:58;;;;;;;3.20;0.87;;;21.30;99.90;;;;;;5113086;28;20253;-75
2023/04/21 06:58:26;;;;;;;4.00;1.23;;;21.30;99.90;;;;;;5113338;28;20520;-73
2023/04/21 07:00:53;;;;;;;3.10;1.17;;;21.20;99.90;;;;;;5113514;28;20178;-76
2023/04/21 07:03:21;;;;;;;8.63;1.37;;;21.10;99.90;;;;;;5113036;28;20187;-77
2023/04/21 07:05:49;;;;;;;5.97;1.30;;;21.10;99.90;;;;;;5113416;28;20556;-78
2023/04/21 07:08:17;;;;;;;4.77;1.00;;;21.00;99.90;;;;;;5113396;27;20174;-77
2023/04/21 07:10:45;;;;;;;5.43;1.20;;;20.90;99.90;;;;;;5112822;28;20201;-76
2023/04/21 07:13:13;;;;;;;7.23;1.40;;;20.80;99.90;;;;;;5113152;28;20166;-75
2023/04/21 07:15:40;;;;;;;7.77;1.20;;;20.70;99.90;;;;;;5112934;28;20175;-77
2023/04/21 07:18:08;;;;;;;7.13;1.10;;;20.70;99.90;;;;;;5112696;28;20643;-76
2023/04/21 07:20:36;;;;;;;12.30;1.57;;;20.60;99.90;;;;;;5112994;28;20170;-76
2023/04/21 07:23:04;;;;;;;7.60;1.70;;;20.50;99.90;;;;;;5112771;28;20187;-74
2023/04/21 07:25:31;;;;;;;3.50;1.07;;;20.40;99.90;;;;;;5112400;28;20220;-72
2023/04/21 07:27:59;;;;;;;3.47;1.40;;;20.30;99.90;;;;;;5112738;28;20172;-73
2023/04/21 07:30:28;;;;;;;4.20;1.40;;;20.30;99.90;;;;;;5113062;28;20185;-74
2023/04/21 07:32:56;;;;;;;6.00;1.63;;;20.10;99.90;;;;;;5112462;28;20177;-75
2023/04/21 07:35:24;;;;;;;2.93;1.40;;;20.00;99.90;;;;;;5112923;28;20171;-74
2023/04/21 07:37:52;;;;;;;5.47;1.10;;;19.90;99.90;;;;;;5112835;27;20203;-75
2023/04/21 07:40:20;;;;;;;5.97;1.40;;;19.80;99.90;;;;;;5112286;28;20178;-74
2023/04/21 07:42:48;;;;;;;6.07;1.30;;;19.80;99.90;;;;;;5112705;28;20197;-75
2023/04/21 07:45:16;;;;;;;2.97;1.13;;;19.60;99.90;;;;;;5112666;28;20210;-73
2023/04/21 07:47:45;;;;;;;2.80;1.00;;;19.60;99.90;;;;;;5112303;27;20180;-74
2023/04/21 07:50:12;;;;;;;3.93;1.30;;;19.60;99.90;;;;;;5112568;28;20225;-73
2023/04/21 07:52:40;;;;;;;7.33;1.30;;;19.50;99.90;;;;;;5111117;28;20631;-73
2023/04/21 07:55:08;;;;;;;6.40;1.93;;;19.50;99.90;;;;;;5110223;28;20178;-75
2023/04/21 07:57:37;;;;;;;3.83;1.20;;;19.40;99.90;;;;;;5102162;28;20563;-72
2023/04/21 08:00:06;;;;;;;4.43;1.57;;;19.40;99.90;;;;;;5111132;28;20190;-74
2023/04/21 08:02:34;;;;;;;4.20;1.10;;;19.40;99.90;;;;;;5109561;28;20211;-73
2023/04/21 08:05:02;;;;;;;4.53;1.17;;;19.30;99.90;;;;;;5112320;28;20686;-73
2023/04/21 08:07:30;;;;;;;4.23;1.50;;;19.10;99.90;;;;;;5112474;28;20166;-74
2023/04/21 08:09:59;;;;;;;5.10;1.33;;;19.10;99.90;;;;;;5107078;28;20207;-72
2023/04/21 08:12:27;;;;;;;6.70;2.07;;;19.10;99.90;;;;;;5098983;28;20223;-73
2023/04/21 08:14:54;;;;;;;3.93;1.60;;;19.00;99.90;;;;;;5112237;28;20698;-75
2023/04/21 08:17:22;;;;;;;5.63;1.87;;;19.00;99.90;;;;;;5097543;28;20178;-73
2023/04/21 08:19:50;;;;;;;4.50;1.50;;;19.00;99.90;;;;;;5097907;28;20191;-75
2023/04/21 08:22:19;;;;;;;4.43;1.50;;;18.80;99.90;;;;;;5112365;28;20633;-73
2023/04/21 08:24:47;;;;;;;3.23;1.23;;;18.70;99.90;;;;;;5111343;28;20262;-75
2023/04/21 08:27:14;;;;;;;7.50;1.57;;;18.60;99.90;;;;;;5106233;28;20193;-72
2023/04/21 08:29:42;;;;;;;4.87;1.30;;;18.50;99.90;;;;;;5098746;28;20197;-72
2023/04/21 08:32:10;;;;;;;4.83;1.20;;;18.40;99.90;;;;;;5111679;28;20540;-73
2023/04/21 08:34:38;;;;;;;6.13;1.77;;;18.30;99.90;;;;;;5112264;28;20262;-75
2023/04/21 08:37:05;;;;;;;5.87;1.77;;;18.20;99.90;;;;;;5112158;28;20277;-74
2023/04/21 08:39:36;;;;;;;3.17;1.10;;;18.10;99.90;;;;;;5111520;28;20185;-72
2023/04/21 08:42:05;;;;;;;9.10;1.60;;;18.00;99.90;;;;;;5112131;28;20181;-73
2023/04/21 08:44:32;;;;;;;3.87;1.50;;;17.90;99.90;;;;;;5111854;28;20209;-73
2023/04/21 08:47:02;;;;;;;4.83;1.50;;;17.80;99.90;;;;;;5110684;28;20194;-74
2023/04/21 08:49:30;;;;;;;8.27;2.83;;;17.70;99.90;;;;;;5092424;28;20201;-74
2023/04/21 08:52:00;;;;;;;9.07;3.30;;;17.60;99.90;;;;;;5092712;28;20237;-75
2023/04/21 08:54:28;;;;;;;12.93;5.00;;;17.60;99.90;;;;;;5096139;28;20653;-73
2023/04/21 08:56:56;;;;;;;8.00;4.23;;;17.60;99.90;;;;;;5096876;28;20586;-74
2023/04/21 08:59:23;;;;;;;5.60;2.60;;;17.50;99.90;;;;;;5096632;28;20626;-74
2023/04/21 09:02:14;;;;;;;5.57;3.27;;;17.50;99.90;;;;;;5096581;28;20210;-74
2023/04/21 09:04:47;;;;;;;5.43;2.90;;;17.40;99.90;;;;;;5096521;28;20574;-74
2023/04/21 09:07:36;;;;;;;10.57;3.90;;;17.30;99.90;;;;;;5111220;28;20187;-75
2023/04/21 09:10:05;;;;;;;8.23;4.17;;;17.20;99.90;;;;;;5116730;28;20186;-74
2023/04/21 09:12:33;;;;;;;9.00;5.53;;;17.30;99.90;;;;;;5106159;28;20199;-74
2023/04/21 09:15:05;;;;;;;16.37;11.23;;;17.10;99.90;;;;;;5105815;28;20186;-73
2023/04/21 09:17:35;;;;;;;22.93;14.60;;;17.10;99.90;;;;;;5117101;28;20183;-73
2023/04/21 09:20:21;;;;;;;19.73;14.10;;;17.10;99.90;;;;;;5114787;28;20186;-73
2023/04/21 09:22:50;;;;;;;25.00;14.90;;;17.00;99.90;;;;;;5104041;28;20232;-73
2023/04/21 09:28:45;;;;;;;18.93;9.90;;;16.80;99.90;;;;;;5095628;28;20204;-75
2023/04/21 09:31:23;;;;;;;18.00;7.57;;;16.70;99.90;;;;;;5112687;28;20194;-72
2023/04/21 09:33:54;;;;;;;11.80;5.43;;;16.70;99.90;;;;;;5096369;27;20175;-74
2023/04/21 09:36:25;;;;;;;8.27;5.03;;;16.50;99.90;;;;;;5096044;28;20171;-74
2023/04/21 09:38:57;;;;;;;7.63;3.60;;;16.50;99.90;;;;;;5095108;28;20178;-75
2023/04/21 09:41:25;;;;;;;9.00;2.97;;;16.40;99.90;;;;;;5094820;28;20179;-72
2023/04/21 09:43:53;;;;;;;5.87;3.23;;;16.40;99.90;;;;;;5095606;28;20191;-74
2023/04/21 09:46:21;;;;;;;4.80;3.17;;;16.40;99.90;;;;;;5095346;28;20180;-74
2023/04/21 09:48:51;;;;;;;9.77;3.00;;;16.30;99.90;;;;;;5095165;28;20175;-75
2023/04/21 09:51:20;;;;;;;7.27;3.10;;;16.30;99.90;;;;;;5094027;28;20183;-74
2023/04/21 09:53:52;;;;;;;7.87;3.40;;;16.20;99.90;;;;;;5095404;28;20178;-73
2023/04/21 09:56:24;;;;;;;5.40;2.40;;;16.20;99.90;;;;;;5095210;28;20175;-75
2023/04/21 09:58:56;;;;;;;7.00;2.70;;;16.10;99.90;;;;;;5095346;28;20530;-74
2023/04/21 10:01:29;;;;;;;5.07;2.57;;;16.00;99.90;;;;;;5095209;28;20331;-75
2023/04/21 10:03:57;;;;;;;5.47;2.60;;;16.00;99.90;;;;;;5094321;28;20558;-74
2023/04/21 10:06:25;;;;;;;7.07;2.50;;;15.90;99.90;;;;;;5094580;28;20305;-73
2023/04/21 10:08:56;;;;;;;8.90;2.57;;;15.90;99.90;;;;;;5095142;28;20588;-74
2023/04/21 10:11:25;;;;;;;6.10;2.80;;;15.90;99.90;;;;;;5094846;28;20171;-73
2023/04/21 10:13:53;;;;;;;3.77;2.20;;;15.80;99.90;;;;;;5095137;28;20175;-74
2023/04/21 10:16:22;;;;;;;6.77;2.40;;;15.80;99.90;;;;;;5094976;28;20167;-73
2023/04/21 10:18:49;;;;;;;5.90;2.70;;;15.80;99.90;;;;;;5094518;28;20638;-75
2023/04/21 10:21:23;;;;;;;6.63;2.83;;;15.70;99.90;;;;;;5094803;28;20175;-75
2023/04/21 10:23:52;;;;;;;5.30;2.37;;;15.60;99.90;;;;;;5094255;28;20592;-76
2023/04/21 10:26:31;;;;;;;10.90;2.70;;;15.60;99.90;;;;;;5094846;28;20178;-75
2023/04/21 10:29:05;;;;;;;5.90;2.47;;;15.50;99.90;;;;;;5094606;28;20211;-74
2023/04/21 10:31:34;;;;;;;6.07;3.17;;;15.50;99.90;;;;;;5093164;28;20954;-76
2023/04/21 10:34:08;;;;;;;9.40;2.80;;;15.50;99.90;;;;;;5094568;28;20175;-75
2023/04/21 10:36:45;;;;;;;8.80;3.10;;;15.40;99.90;;;;;;5094414;28;20183;-76
2023/04/21 10:39:38;;;;;;;8.03;3.13;;;15.40;99.90;;;;;;5094459;28;20670;-76
2023/04/21 10:42:21;;;;;;;5.93;3.10;;;15.30;99.90;;;;;;5094542;28;20660;-74
2023/04/21 10:44:53;;;;;;;7.13;3.40;;;15.30;99.90;;;;;;5094179;28;20294;-76
2023/04/21 10:47:43;;;;;;;7.80;3.10;;;15.30;99.90;;;;;;5093927;28;20228;-76
2023/04/21 10:50:19;;;;;;;8.37;3.40;;;15.30;99.90;;;;;;5094376;28;20221;-73
2023/04/21 10:52:53;;;;;;;7.00;3.30;;;15.30;99.90;;;;;;5094425;28;20174;-74
2023/04/21 10:55:25;;;;;;;9.33;3.67;;;15.30;99.90;;;;;;5094340;28;20183;-73
2023/04/21 10:57:53;;;;;;;9.47;3.73;;;15.30;99.90;;;;;;5094265;28;20553;-74
2023/04/21 11:00:24;;;;;;;6.37;2.83;;;15.20;99.90;;;;;;5093959;28;20178;-75
2023/04/21 11:03:01;;;;;;;10.93;3.93;;;15.20;99.90;;;;;;5094190;28;20670;-75
2023/04/21 11:05:33;;;;;;;8.60;3.33;;;15.10;99.90;;;;;;5094149;28;20214;-75
2023/04/21 11:08:10;;;;;;;7.50;3.40;;;15.10;99.90;;;;;;5094091;28;20175;-75
2023/04/21 11:10:51;;;;;;;9.33;3.50;;;15.00;99.90;;;;;;5094150;28;20179;-75
2023/04/21 11:13:22;;;;;;;6.83;3.43;;;15.00;99.90;;;;;;5094009;28;20229;-76
2023/04/21 11:16:03;;;;;;;8.87;3.47;;;14.90;99.90;;;;;;5093334;28;20204;-75
2023/04/21 11:18:48;;;;;;;5.77;3.10;;;14.90;99.90;;;;;;5093975;28;20180;-75
2023/04/21 11:21:20;;;;;;;8.90;3.50;;;14.90;99.90;;;;;;5092413;28;20167;-76
2023/04/21 11:23:55;;;;;;;9.40;3.33;;;14.90;99.90;;;;;;5098575;28;20301;-73
2023/04/21 11:26:33;;;;;;;6.70;3.27;;;14.90;99.90;;;;;;5114048;28;20182;-75
2023/04/21 11:29:11;;;;;;;6.30;3.23;;;14.90;99.90;;;;;;5114046;28;20178;-75
2023/04/21 11:31:47;;;;;;;8.03;3.60;;;14.80;99.90;;;;;;5113587;28;20214;-76
2023/04/21 11:34:16;;;;;;;8.47;3.27;;;14.80;99.90;;;;;;5113860;28;20265;-76
2023/04/21 11:36:45;;;;;;;9.27;3.43;;;14.70;99.90;;;;;;5113670;28;20170;-76
2023/04/21 11:39:15;;;;;;;10.03;3.90;;;14.70;99.90;;;;;;5114048;28;20175;-75
2023/04/21 11:41:44;;;;;;;5.37;3.00;;;14.60;99.90;;;;;;5113963;28;20174;-77
2023/04/21 11:44:14;;;;;;;9.07;3.37;;;14.60;99.90;;;;;;5114010;27;20212;-75
2023/04/21 11:46:47;;;;;;;6.17;2.70;;;14.60;99.90;;;;;;5113879;28;20189;-75
2023/04/21 11:49:17;;;;;;;8.70;3.10;;;14.60;99.90;;;;;;5113673;28;20174;-76
2023/04/21 11:51:45;;;;;;;4.60;2.77;;;14.60;99.90;;;;;;5113375;28;20182;-76
2023/04/21 11:54:15;;;;;;;7.70;3.33;;;14.50;99.90;;;;;;5113805;28;20194;-76
2023/04/21 11:56:47;;;;;;;8.67;2.87;;;14.40;99.90;;;;;;5113699;28;20209;-76
2023/04/21 11:59:23;;;;;;;10.63;3.47;;;14.50;99.90;;;;;;5113561;28;20174;-76
2023/04/21 12:01:52;;;;;;;9.13;3.73;;;14.40;99.90;;;;;;5113509;28;20201;-74
2023/04/21 12:04:22;;;;;;;4.83;3.00;;;14.40;99.90;;;;;;5111845;28;20210;-75
2023/04/21 12:07:02;;;;;;;4.40;2.50;;;14.40;99.90;;;;;;5113497;28;20166;-75
2023/04/21 12:09:30;;;;;;;4.77;2.50;;;14.30;99.90;;;;;;5113077;28;20171;-75
2023/04/21 12:12:01;;;;;;;10.00;3.03;;;14.30;99.90;;;;;;5112121;28;20672;-75
2023/04/21 12:14:32;;;;;;;10.10;3.10;;;14.30;99.90;;;;;;5113658;28;20182;-75
2023/04/21 12:17:00;;;;;;;9.00;2.87;;;14.30;99.90;;;;;;5113414;28;20177;-76
2023/04/21 12:19:41;;;;;;;7.43;2.83;;;14.30;99.90;;;;;;5113206;28;20175;-75
2023/04/21 12:22:26;;;;;;;5.73;2.73;;;14.30;99.90;;;;;;5113716;28;20185;-75
2023/04/21 12:24:54;;;;;;;5.67;2.20;;;14.30;99.90;;;;;;5113056;28;20250;-75
2023/04/21 12:27:22;;;;;;;5.07;2.60;;;14.20;99.90;;;;;;5112411;28;20181;-74
2023/04/21 12:29:50;;;;;;;8.37;3.23;;;14.20;99.90;;;;;;5111348;28;20213;-76
2023/04/21 12:32:18;;;;;;;9.37;3.10;;;14.20;99.90;;;;;;5111832;28;20716;-74
2023/04/21 12:34:45;;;;;;;4.93;3.00;;;14.20;99.90;;;;;;5113161;28;20221;-76
2023/04/21 12:37:13;;;;;;;5.60;2.43;;;14.20;99.90;;;;;;5113139;28;20539;-74
2023/04/21 12:39:41;;;;;;;7.90;2.57;;;14.20;99.90;;;;;;5111414;28;20641;-73
2023/04/21 12:42:09;;;;;;;7.77;2.93;;;14.20;99.90;;;;;;5112735;28;20593;-73
2023/04/21 12:44:37;;;;;;;9.43;3.07;;;14.20;99.90;;;;;;5113203;28;20606;-74
2023/04/21 12:47:05;;;;;;;7.20;2.70;;;14.20;99.90;;;;;;5112798;28;20169;-75
2023/04/21 12:49:33;;;;;;;4.20;2.50;;;14.20;99.90;;;;;;5112585;28;20516;-74
2023/04/21 12:52:04;;;;;;;7.67;2.90;;;14.20;99.90;;;;;;5113051;28;20519;-75
2023/04/21 12:54:32;;;;;;;7.47;2.80;;;14.10;99.90;;;;;;5112472;28;20178;-75
2023/04/21 12:57:00;;;;;;;7.03;2.70;;;14.20;99.90;;;;;;5112849;28;20171;-76
2023/04/21 12:59:28;;;;;;;7.40;2.63;;;14.20;99.90;;;;;;5112790;28;20177;-74